createdAt,value
2023-03-06T10:06:21.112Z,58.37
2023-03-06T10:09:27.276Z,58.38
2023-03-06T10:12:36.156Z,58.53
2023-03-06T10:15:44.934Z,58.26
2023-03-06T10:18:47.635Z,58.54
2023-03-06T10:21:59.543Z,58.56
2023-03-06T10:25:08.382Z,58.51
2023-03-06T10:28:17.338Z,58.62
2023-03-06T10:31:24.169Z,58.41
2023-03-06T10:34:31.626Z,58.51
2023-03-06T10:37:35.370Z,58.44
2023-03-06T10:40:43.902Z,58.58
2023-03-06T10:44:07.866Z,58.53
2023-03-06T10:47:31.586Z,58.52
2023-03-06T10:50:34.432Z,58.59
2023-03-06T10:53:37.854Z,58.51
2023-03-06T10:56:42.831Z,58.58
2023-03-06T10:59:52.902Z,58.50
2023-03-06T11:03:07.995Z,58.43
2023-03-06T11:06:13.775Z,58.78
2023-03-06T11:09:22.628Z,58.65
2023-03-06T11:12:29.145Z,58.67
2023-03-06T11:15:31.997Z,58.62
2023-03-06T11:18:42.010Z,58.56
2023-03-06T11:21:44.733Z,58.72
2023-03-06T11:24:51.422Z,58.43
2023-03-06T11:27:58.424Z,58.76
2023-03-06T11:31:08.390Z,58.75
2023-03-06T11:34:17.466Z,58.79
2023-03-06T11:37:42.750Z,58.87
2023-03-06T11:40:52.579Z,58.85
2023-03-06T11:44:02.165Z,58.79
2023-03-06T11:47:17.493Z,58.79
2023-03-06T11:50:26.803Z,58.84
2023-03-06T11:53:36.053Z,58.70
2023-03-06T11:57:36.342Z,58.73
2023-03-06T12:00:46.366Z,58.65
2023-03-06T12:04:27.212Z,58.59
2023-03-06T12:07:35.139Z,58.44
2023-03-06T12:10:49.066Z,58.52
2023-03-06T12:14:10.428Z,58.61
2023-03-06T12:17:19.777Z,58.71
2023-03-06T12:20:41.063Z,58.57
2023-03-06T12:24:01.217Z,58.74
2023-03-06T12:27:18.250Z,58.60
2023-03-06T12:30:36.446Z,58.68
2023-03-06T12:33:50.029Z,58.65
2023-03-06T12:37:01.992Z,58.63
2023-03-06T12:40:27.250Z,58.65
2023-03-06T12:44:06.402Z,58.73
2023-03-06T12:47:12.345Z,59.07
2023-03-06T12:50:21.593Z,58.59
2023-03-06T12:53:28.595Z,58.81
2023-03-06T12:56:34.154Z,58.84
2023-03-06T12:59:47.178Z,58.65
2023-03-06T13:03:15.671Z,58.56
2023-03-06T13:06:49.852Z,58.93
2023-03-06T13:10:06.778Z,58.78
2023-03-06T13:13:31.702Z,59.04
2023-03-06T13:16:35.623Z,58.65
2023-03-06T13:19:38.312Z,58.70
2023-03-06T13:22:42.401Z,58.81
2023-03-06T13:25:49.799Z,58.94
2023-03-06T13:28:57.661Z,58.99
2023-03-06T13:32:15.641Z,58.88
2023-03-06T13:35:49.928Z,58.98
2023-03-06T13:39:06.965Z,59.09
2023-03-06T13:42:27.877Z,58.84
2023-03-06T13:45:35.392Z,59.06
2023-03-06T13:48:44.867Z,58.81
2023-03-06T13:52:06.450Z,58.61
2023-03-06T13:55:21.906Z,58.58
2023-03-06T13:58:40.852Z,58.55
2023-03-06T14:01:55.634Z,58.68
2023-03-06T14:04:59.812Z,58.71
2023-03-06T14:08:08.874Z,58.85
2023-03-06T14:11:20.192Z,58.29
2023-03-06T14:14:32.980Z,58.78
2023-03-06T14:17:39.253Z,58.81
2023-03-06T14:20:44.446Z,58.55
2023-03-06T14:23:47.220Z,58.51
2023-03-06T14:26:51.639Z,58.64
2023-03-06T14:30:06.188Z,58.59
2023-03-06T14:33:13.391Z,58.75
2023-03-06T14:36:18.208Z,58.67
2023-03-06T14:39:23.517Z,58.49
2023-03-06T14:42:30.340Z,58.75
2023-03-06T14:45:33.017Z,58.75
2023-03-06T14:48:42.562Z,58.61
2023-03-06T14:51:47.729Z,58.69
2023-03-06T14:54:50.808Z,58.74
2023-03-06T14:57:58.044Z,58.81
2023-03-06T15:01:04.579Z,58.83
2023-03-06T15:04:19.507Z,59.00
2023-03-06T15:07:27.811Z,58.81
2023-03-06T15:10:33.054Z,59.01
2023-03-06T15:13:35.903Z,58.76
2023-03-06T15:16:38.422Z,58.86
2023-03-06T15:19:42.381Z,59.00
2023-03-06T15:22:45.287Z,59.27
2023-03-06T15:26:01.531Z,59.01
2023-03-06T15:29:13.774Z,59.00
2023-03-06T15:32:31.259Z,59.04
2023-03-06T15:35:37.897Z,59.17
2023-03-06T15:38:42.657Z,59.07
2023-03-06T15:41:45.651Z,59.03
2023-03-06T15:44:50.763Z,59.19
2023-03-06T15:47:56.117Z,59.16
2023-03-06T15:51:00.001Z,58.92
2023-03-06T15:54:11.967Z,59.01
2023-03-06T15:57:22.112Z,59.15
2023-03-06T16:00:28.289Z,58.86
2023-03-06T16:03:31.081Z,58.84
2023-03-06T16:06:34.932Z,58.86
2023-03-06T16:09:37.413Z,59.24
2023-03-06T16:12:39.866Z,59.07
2023-03-06T16:15:47.401Z,59.06
2023-03-06T16:18:49.939Z,59.26
2023-03-06T16:21:53.711Z,59.16
2023-03-06T16:24:56.013Z,59.31
2023-03-06T16:27:59.682Z,59.14
2023-03-06T16:31:02.452Z,59.24
2023-03-06T16:34:05.147Z,59.28
2023-03-06T16:37:13.710Z,59.37
2023-03-06T16:40:20.616Z,59.26
2023-03-06T16:43:23.026Z,59.29
2023-03-06T16:46:26.675Z,59.69
2023-03-06T16:49:29.564Z,59.33
2023-03-06T16:52:34.536Z,59.38
2023-03-06T16:55:37.253Z,59.40
2023-03-06T16:58:43.305Z,59.35
2023-03-06T17:01:45.820Z,59.27
2023-03-06T17:04:48.369Z,59.35
2023-03-06T17:07:52.184Z,59.61
2023-03-06T17:10:54.647Z,59.32
2023-03-06T17:13:57.119Z,59.32
2023-03-06T17:16:59.731Z,59.35
2023-03-06T17:20:02.732Z,59.39
2023-03-06T17:23:06.715Z,59.28
2023-03-06T17:26:11.798Z,59.50
2023-03-06T17:29:14.508Z,59.56
2023-03-06T17:32:17.103Z,59.54
2023-03-06T17:35:20.148Z,59.62
2023-03-06T17:38:24.097Z,59.39
2023-03-06T17:41:26.796Z,59.62
2023-03-06T17:44:29.307Z,59.50
2023-03-06T17:47:31.824Z,59.52
2023-03-06T17:50:34.359Z,59.58
2023-03-06T17:53:38.612Z,59.37
2023-03-06T17:56:41.121Z,59.59
2023-03-06T17:59:47.683Z,59.63
2023-03-06T18:02:50.334Z,59.64
2023-03-06T18:06:00.212Z,59.60
2023-03-06T18:09:05.123Z,59.67
2023-03-06T18:12:08.059Z,59.58
2023-03-06T18:15:11.282Z,59.70
2023-03-06T18:18:13.814Z,59.85
2023-03-06T18:21:16.972Z,59.71
2023-03-06T18:24:20.927Z,59.83
2023-03-06T18:27:23.432Z,59.87
2023-03-06T18:30:27.123Z,59.76
2023-03-06T18:33:29.688Z,59.60
2023-03-06T18:36:33.985Z,59.79
2023-03-06T18:39:37.886Z,59.75
2023-03-06T18:42:40.681Z,59.78
2023-03-06T18:45:44.343Z,60.03
2023-03-06T18:48:46.782Z,59.74
2023-03-06T18:51:50.637Z,59.65
2023-03-06T18:54:54.683Z,59.66
2023-03-06T18:57:58.096Z,59.83
2023-03-06T19:01:02.299Z,59.91
2023-03-06T19:04:05.768Z,59.79
2023-03-06T19:07:08.329Z,59.67
2023-03-06T19:10:13.828Z,59.29
2023-03-06T19:13:16.583Z,59.42
2023-03-06T19:16:22.340Z,59.72
2023-03-06T19:19:26.250Z,59.74
2023-03-06T19:22:29.073Z,59.61
2023-03-06T19:25:34.154Z,59.66
2023-03-06T19:28:39.376Z,59.52
2023-03-06T19:31:42.580Z,59.94
2023-03-06T19:34:45.235Z,59.61
2023-03-06T19:37:47.666Z,59.78
2023-03-06T19:40:51.755Z,59.78
2023-03-06T19:43:58.288Z,59.89
2023-03-06T19:47:00.712Z,59.72
2023-03-06T19:50:03.587Z,59.64
2023-03-06T19:53:07.360Z,59.80
2023-03-06T19:56:16.501Z,60.16
2023-03-06T19:59:18.992Z,60.00
2023-03-06T20:02:27.212Z,59.70
2023-03-06T20:05:30.304Z,59.76
2023-03-06T20:08:33.994Z,60.09
2023-03-06T20:11:37.897Z,59.98
2023-03-06T20:14:40.329Z,59.72
2023-03-06T20:17:42.964Z,59.99
2023-03-06T20:20:45.704Z,59.96
2023-03-06T20:23:50.991Z,60.13
2023-03-06T20:26:57.615Z,59.76
2023-03-06T20:30:00.333Z,60.01
2023-03-06T20:33:02.754Z,59.79
2023-03-06T20:36:06.051Z,59.79
2023-03-06T20:39:12.176Z,59.86
2023-03-06T20:42:17.609Z,59.85
2023-03-06T20:45:20.191Z,59.82
2023-03-06T20:48:22.639Z,59.92
2023-03-06T20:51:27.872Z,59.83
2023-03-06T20:54:30.416Z,59.79
2023-03-06T20:57:35.188Z,59.83
2023-03-06T21:00:37.614Z,59.79
2023-03-06T21:03:40.025Z,59.76
2023-03-06T21:06:46.524Z,59.72
2023-03-06T21:09:49.760Z,59.84
2023-03-06T21:12:53.675Z,59.59
2023-03-06T21:15:56.120Z,60.03
2023-03-06T21:19:00.579Z,59.73
2023-03-06T21:22:03.175Z,59.55
2023-03-06T21:25:06.212Z,59.84
2023-03-06T21:28:10.049Z,59.83
2023-03-06T21:31:14.419Z,59.69
2023-03-06T21:34:16.949Z,59.96
2023-03-06T21:37:19.526Z,59.83
2023-03-06T21:40:22.372Z,59.69
2023-03-06T21:43:26.204Z,59.99
2023-03-06T21:46:29.538Z,59.90
2023-03-06T21:49:32.329Z,60.08
2023-03-06T21:52:35.190Z,60.05
2023-03-06T21:55:40.383Z,59.92
2023-03-06T21:58:45.182Z,59.97
2023-03-06T22:01:47.729Z,60.03
2023-03-06T22:04:51.175Z,60.15
2023-03-06T22:07:53.717Z,59.85
2023-03-06T22:10:56.396Z,60.02
2023-03-06T22:14:00.323Z,60.18
2023-03-06T22:17:03.020Z,60.09
2023-03-06T22:20:06.626Z,60.09
2023-03-06T22:23:09.390Z,60.05
2023-03-06T22:26:14.465Z,59.87
2023-03-06T22:29:18.231Z,59.92
2023-03-06T22:32:20.768Z,59.85
2023-03-06T22:35:23.680Z,59.93
2023-03-06T22:38:26.143Z,60.00
2023-03-06T22:41:29.316Z,60.10
2023-03-06T22:44:33.212Z,60.01
2023-03-06T22:47:39.513Z,59.96
2023-03-06T22:50:41.983Z,60.20
2023-03-06T22:53:45.071Z,59.89
2023-03-06T22:56:47.748Z,59.86
2023-03-06T22:59:51.700Z,60.15
2023-03-06T23:02:54.298Z,60.17
2023-03-06T23:05:56.859Z,59.91
2023-03-06T23:09:03.759Z,60.10
2023-03-06T23:12:07.610Z,59.95
2023-03-06T23:15:12.492Z,60.22
2023-03-06T23:18:15.629Z,59.91
2023-03-06T23:21:19.680Z,59.86
2023-03-06T23:24:22.300Z,60.06
2023-03-06T23:27:24.864Z,59.85
2023-03-06T23:30:31.411Z,60.13
2023-03-06T23:33:34.035Z,59.79
2023-03-06T23:36:36.598Z,59.75
2023-03-06T23:39:39.259Z,60.04
2023-03-06T23:42:41.797Z,59.98
2023-03-06T23:45:54.210Z,60.17
2023-03-06T23:48:56.824Z,59.81
2023-03-06T23:51:59.599Z,59.92
2023-03-06T23:55:02.132Z,60.05
2023-03-06T23:58:04.689Z,59.76
